createdAt,value
2022-12-20T00:01:54.895Z,12.80
2022-12-20T00:04:21.958Z,12.80
2022-12-20T00:06:48.907Z,12.80
2022-12-20T00:09:15.953Z,12.80
2022-12-20T00:11:43.536Z,12.90
2022-12-20T00:14:10.712Z,12.80
2022-12-20T00:16:37.863Z,12.90
2022-12-20T00:19:06.250Z,12.80
2022-12-20T00:21:34.490Z,12.80
2022-12-20T00:24:01.530Z,12.80
2022-12-20T00:26:29.830Z,12.80
2022-12-20T00:28:56.950Z,12.80
2022-12-20T00:31:24.808Z,12.80
2022-12-20T00:33:53.255Z,12.80
2022-12-20T00:36:20.229Z,12.70
2022-12-20T00:38:48.233Z,12.70
2022-12-20T00:41:17.494Z,12.70
2022-12-20T00:43:44.498Z,12.70
2022-12-20T00:46:11.881Z,12.70
2022-12-20T00:48:38.858Z,12.80
2022-12-20T00:51:10.293Z,12.80
2022-12-20T00:53:37.386Z,12.80
2022-12-20T00:56:04.643Z,12.80
2022-12-20T00:58:32.800Z,12.70
2022-12-20T01:00:59.800Z,12.80
2022-12-20T01:03:26.910Z,12.80
2022-12-20T01:05:55.831Z,12.80
2022-12-20T01:08:22.884Z,12.80
2022-12-20T01:11:20.162Z,12.90
2022-12-20T01:13:48.702Z,12.90
2022-12-20T01:16:23.867Z,12.90
2022-12-20T01:18:50.831Z,12.90
2022-12-20T01:21:18.282Z,12.90
2022-12-20T01:23:45.316Z,12.90
2022-12-20T01:26:14.104Z,12.90
2022-12-20T01:28:42.894Z,12.80
2022-12-20T01:31:11.078Z,12.80
2022-12-20T01:33:38.085Z,12.90
2022-12-20T01:36:06.728Z,12.80
2022-12-20T01:38:33.687Z,12.80
2022-12-20T01:41:01.110Z,12.80
2022-12-20T01:43:53.621Z,12.80
2022-12-20T01:46:21.780Z,12.80
2022-12-20T01:49:11.447Z,12.80
2022-12-20T01:51:41.874Z,12.80
2022-12-20T01:54:12.828Z,12.80
2022-12-20T01:56:40.534Z,12.80
2022-12-20T01:59:07.710Z,12.90
2022-12-20T02:01:34.719Z,12.90
2022-12-20T02:04:01.850Z,12.90
2022-12-20T02:06:28.694Z,12.90
2022-12-20T02:08:58.732Z,13.00
2022-12-20T02:11:31.380Z,12.90
2022-12-20T02:14:32.303Z,13.00
2022-12-20T02:17:30.253Z,13.00
2022-12-20T02:20:00.183Z,13.00
2022-12-20T02:23:06.279Z,13.00
2022-12-20T02:25:59.295Z,12.90
2022-12-20T02:28:28.905Z,13.00
2022-12-20T02:30:55.673Z,12.90
2022-12-20T02:33:22.452Z,12.90
2022-12-20T02:35:49.310Z,13.00
2022-12-20T02:38:26.680Z,13.00
2022-12-20T02:40:57.262Z,13.00
2022-12-20T02:43:42.466Z,13.00
2022-12-20T02:46:10.190Z,13.00
2022-12-20T02:48:37.145Z,12.90
2022-12-20T02:51:04.272Z,12.90
2022-12-20T02:53:31.372Z,12.90
2022-12-20T02:55:59.883Z,12.90
2022-12-20T02:58:43.680Z,12.80
2022-12-20T03:01:13.982Z,12.80
2022-12-20T03:03:40.833Z,12.80
2022-12-20T03:06:07.955Z,12.80
2022-12-20T03:08:34.814Z,12.80
2022-12-20T03:11:01.611Z,12.80
2022-12-20T03:13:28.398Z,12.80
2022-12-20T03:15:55.260Z,12.80
2022-12-20T03:18:22.155Z,12.80
2022-12-20T03:20:49.096Z,12.80
2022-12-20T03:23:15.896Z,12.80
2022-12-20T03:25:42.719Z,12.80
2022-12-20T03:28:09.521Z,12.80
2022-12-20T03:30:36.588Z,12.80
2022-12-20T03:33:03.391Z,12.70
2022-12-20T03:35:30.320Z,12.80
2022-12-20T03:37:57.275Z,12.80
2022-12-20T03:40:24.224Z,12.80
2022-12-20T03:42:51.121Z,12.70
2022-12-20T03:45:18.061Z,12.80
2022-12-20T03:47:44.883Z,12.80
2022-12-20T03:50:12.348Z,12.70
2022-12-20T03:52:39.164Z,12.70
2022-12-20T03:55:06.722Z,12.70
2022-12-20T03:57:33.545Z,12.70
2022-12-20T04:00:00.383Z,12.70
2022-12-20T04:02:27.366Z,12.70
2022-12-20T04:04:54.283Z,12.70
2022-12-20T04:07:21.045Z,12.80
2022-12-20T04:09:47.917Z,12.80
2022-12-20T04:12:14.759Z,12.80
2022-12-20T04:14:41.597Z,12.80
2022-12-20T04:17:08.635Z,12.80
2022-12-20T04:19:35.420Z,12.80
2022-12-20T04:22:05.672Z,12.80
2022-12-20T04:24:33.109Z,12.80
2022-12-20T04:26:59.939Z,12.70
2022-12-20T04:29:26.759Z,12.70
2022-12-20T04:31:54.213Z,12.60
2022-12-20T04:34:21.135Z,12.60
2022-12-20T04:36:48.128Z,12.60
2022-12-20T04:39:15.023Z,12.60
2022-12-20T04:41:42.167Z,12.60
2022-12-20T04:44:08.985Z,12.50
2022-12-20T04:46:35.898Z,12.60
2022-12-20T04:49:02.811Z,12.50
2022-12-20T04:51:29.678Z,12.60
2022-12-20T04:53:56.674Z,12.60
2022-12-20T04:56:25.221Z,12.60
2022-12-20T04:58:52.646Z,12.60
2022-12-20T05:01:19.941Z,12.60
2022-12-20T05:03:47.177Z,12.60
2022-12-20T05:06:14.204Z,12.60
2022-12-20T05:08:41.138Z,12.60
2022-12-20T05:11:08.311Z,12.60
2022-12-20T05:13:35.150Z,12.70
2022-12-20T05:16:02.130Z,12.70
2022-12-20T05:18:29.058Z,12.70
2022-12-20T05:21:18.620Z,12.70
2022-12-20T05:24:04.382Z,12.70
2022-12-20T05:26:32.808Z,12.70
2022-12-20T05:28:59.604Z,12.70
2022-12-20T05:31:26.626Z,12.60
2022-12-20T05:33:54.347Z,12.60
2022-12-20T05:36:21.146Z,12.60
2022-12-20T05:38:47.927Z,12.60
2022-12-20T05:41:14.815Z,12.60
2022-12-20T05:43:41.906Z,12.70
2022-12-20T05:46:08.941Z,12.70
2022-12-20T05:48:35.758Z,12.70
2022-12-20T05:51:03.997Z,12.70
2022-12-20T05:53:30.961Z,12.70
2022-12-20T05:55:58.051Z,12.80
2022-12-20T05:58:24.816Z,12.80
2022-12-20T06:00:51.646Z,12.80
2022-12-20T06:03:18.955Z,12.70
2022-12-20T06:05:46.134Z,12.70
2022-12-20T06:08:13.322Z,12.70
2022-12-20T06:10:41.496Z,12.70
2022-12-20T06:13:08.871Z,12.70
2022-12-20T06:15:35.948Z,12.70
2022-12-20T06:18:02.795Z,12.70
2022-12-20T06:20:29.749Z,12.70
2022-12-20T06:22:56.573Z,12.80
2022-12-20T06:25:23.509Z,12.80
2022-12-20T06:27:50.307Z,12.80
2022-12-20T06:30:17.285Z,12.80
2022-12-20T06:32:44.219Z,12.80
2022-12-20T06:35:11.204Z,12.90
2022-12-20T06:37:40.493Z,12.90
2022-12-20T06:40:12.483Z,12.90
2022-12-20T06:42:39.370Z,12.90
2022-12-20T06:45:06.775Z,12.90
2022-12-20T06:47:33.610Z,12.90
2022-12-20T06:50:00.439Z,12.90
2022-12-20T06:52:27.324Z,12.90
2022-12-20T06:54:54.109Z,12.90
2022-12-20T06:57:21.087Z,12.80
2022-12-20T06:59:47.834Z,12.80
2022-12-20T07:02:15.006Z,12.80
2022-12-20T07:04:42.286Z,12.90
2022-12-20T07:07:09.051Z,12.90
2022-12-20T07:09:35.814Z,12.90
2022-12-20T07:12:02.547Z,12.90
2022-12-20T07:14:29.339Z,12.90
2022-12-20T07:16:56.186Z,12.90
2022-12-20T07:19:22.972Z,12.90
2022-12-20T07:21:49.800Z,12.70
2022-12-20T07:24:16.585Z,12.50
2022-12-20T07:26:46.324Z,12.30
2022-12-20T07:32:00.510Z,12.10
2022-12-20T07:34:27.371Z,12.00
2022-12-20T07:36:54.132Z,12.00
2022-12-20T07:39:20.886Z,11.90
2022-12-20T07:41:47.624Z,11.90
2022-12-20T07:44:14.422Z,11.80
2022-12-20T07:46:41.294Z,11.80
2022-12-20T07:49:09.066Z,11.70
2022-12-20T07:51:38.414Z,11.70
2022-12-20T07:54:09.596Z,11.60
2022-12-20T07:56:41.105Z,11.60
2022-12-20T07:59:08.512Z,11.60
2022-12-20T08:01:35.688Z,11.50
2022-12-20T08:04:23.642Z,11.50
2022-12-20T08:06:50.443Z,11.40
2022-12-20T08:09:17.222Z,11.30
2022-12-20T08:11:45.261Z,11.30
2022-12-20T08:14:12.063Z,11.20
2022-12-20T08:16:38.990Z,11.20
2022-12-20T08:19:05.848Z,11.10
2022-12-20T08:21:32.681Z,11.10
2022-12-20T08:23:59.502Z,11.00
2022-12-20T08:26:26.479Z,11.00
2022-12-20T08:28:54.166Z,10.90
2022-12-20T08:31:20.933Z,10.90
2022-12-20T08:33:48.907Z,10.90
2022-12-20T08:36:15.744Z,10.90
2022-12-20T08:38:42.602Z,10.80
2022-12-20T08:41:11.366Z,10.70
2022-12-20T08:43:38.240Z,10.70
2022-12-20T08:46:05.697Z,10.70
2022-12-20T08:48:32.660Z,10.70
2022-12-20T08:51:01.201Z,10.70
2022-12-20T08:53:29.411Z,10.70
2022-12-20T08:56:04.397Z,10.70
2022-12-20T08:58:31.180Z,10.70
2022-12-20T09:01:06.500Z,10.60
2022-12-20T09:03:34.168Z,10.60
2022-12-20T09:06:00.983Z,10.50
2022-12-20T09:08:27.765Z,10.50
2022-12-20T09:10:54.751Z,10.50
2022-12-20T09:13:21.666Z,10.50
2022-12-20T09:15:48.534Z,10.50
2022-12-20T09:18:15.372Z,10.50
2022-12-20T09:20:47.857Z,10.50
2022-12-20T09:23:14.697Z,10.40
2022-12-20T09:25:41.661Z,10.40
2022-12-20T09:28:08.470Z,10.40
2022-12-20T09:30:35.253Z,10.40
2022-12-20T09:33:10.229Z,10.40
2022-12-20T09:35:37.224Z,10.40
2022-12-20T09:38:05.792Z,10.40
2022-12-20T09:40:32.738Z,10.40
2022-12-20T09:42:59.536Z,10.40
2022-12-20T09:45:28.637Z,10.40
2022-12-20T09:47:55.459Z,10.40
2022-12-20T09:50:35.730Z,10.40
2022-12-20T09:53:25.095Z,10.40
2022-12-20T09:55:56.571Z,10.30
2022-12-20T09:58:30.332Z,10.30
2022-12-20T10:00:58.131Z,10.20
2022-12-20T10:03:31.667Z,10.20
2022-12-20T10:06:12.864Z,10.10
2022-12-20T10:08:50.877Z,10.10
2022-12-20T10:11:50.438Z,10.10
2022-12-20T10:14:41.919Z,10.10
2022-12-20T10:17:32.829Z,10.00
2022-12-20T10:20:30.336Z,10.00
2022-12-20T10:23:09.024Z,10.00
2022-12-20T10:25:35.876Z,10.00
2022-12-20T10:28:04.904Z,10.00
2022-12-20T10:30:32.703Z,10.10
2022-12-20T10:32:59.569Z,10.10
2022-12-20T10:35:31.377Z,10.10
2022-12-20T10:38:08.456Z,10.10
2022-12-20T10:43:27.727Z,10.10
2022-12-20T10:46:08.122Z,10.10
2022-12-20T10:48:36.626Z,10.10
2022-12-20T10:51:16.105Z,10.10
2022-12-20T10:54:01.346Z,10.20
2022-12-20T10:56:32.001Z,10.20
2022-12-20T10:59:00.795Z,10.20
2022-12-20T11:01:32.672Z,10.20
2022-12-20T11:04:07.323Z,10.20
2022-12-20T11:06:37.218Z,10.30
2022-12-20T11:09:25.531Z,10.30
2022-12-20T11:12:10.558Z,10.30
2022-12-20T11:14:39.598Z,10.30
2022-12-20T11:17:24.597Z,10.40
2022-12-20T11:20:05.736Z,10.40
2022-12-20T11:22:44.233Z,10.40
2022-12-20T11:25:29.242Z,10.50
2022-12-20T11:28:19.382Z,10.60
2022-12-20T11:31:13.104Z,10.60
2022-12-20T11:33:49.021Z,10.60
2022-12-20T11:36:18.498Z,10.60
2022-12-20T11:38:59.742Z,10.70
2022-12-20T11:41:57.632Z,10.70
2022-12-20T11:44:53.879Z,10.80
2022-12-20T11:47:36.931Z,10.80
2022-12-20T11:50:16.610Z,10.80
2022-12-20T11:52:55.069Z,10.90
2022-12-20T11:55:31.468Z,10.90
2022-12-20T11:58:26.298Z,10.90
2022-12-20T12:00:58.312Z,10.90
2022-12-20T12:03:32.924Z,11.00
2022-12-20T12:06:10.581Z,11.10
2022-12-20T12:09:09.059Z,11.10
2022-12-20T12:12:06.004Z,11.20
2022-12-20T12:14:58.800Z,11.40
2022-12-20T12:17:50.662Z,11.50
2022-12-20T12:20:32.063Z,11.60
2022-12-20T12:23:03.590Z,11.70
2022-12-20T12:25:30.454Z,11.70
2022-12-20T12:27:57.225Z,11.90
2022-12-20T12:30:24.089Z,11.90
2022-12-20T12:32:55.961Z,11.90
2022-12-20T12:36:00.498Z,12.00
2022-12-20T12:38:33.068Z,12.10
2022-12-20T12:41:05.909Z,12.20
2022-12-20T12:43:51.711Z,12.20
2022-12-20T12:46:26.992Z,12.40
2022-12-20T12:49:04.631Z,12.40
2022-12-20T12:51:38.883Z,12.40
2022-12-20T12:54:18.981Z,12.40
2022-12-20T12:56:47.231Z,12.40
2022-12-20T12:59:34.047Z,12.50
2022-12-20T13:02:04.179Z,12.70
2022-12-20T13:05:06.547Z,12.80
2022-12-20T13:07:33.389Z,12.90
2022-12-20T13:10:24.895Z,13.00
2022-12-20T13:12:52.704Z,13.00
2022-12-20T13:15:22.813Z,13.10
2022-12-20T13:17:53.309Z,13.00
2022-12-20T13:20:22.908Z,13.00
2022-12-20T13:23:08.020Z,13.10
2022-12-20T13:25:38.378Z,13.20
2022-12-20T13:28:23.359Z,13.10
2022-12-20T13:31:02.174Z,13.10
2022-12-20T13:33:45.273Z,13.10
2022-12-20T13:36:12.011Z,13.10
2022-12-20T13:38:55.866Z,13.10
2022-12-20T13:41:40.330Z,13.10
2022-12-20T13:44:15.931Z,13.10
2022-12-20T13:46:50.594Z,13.10
2022-12-20T13:49:29.225Z,13.00
2022-12-20T13:52:11.364Z,13.00
2022-12-20T13:54:45.251Z,13.00
2022-12-20T13:57:19.340Z,12.90
2022-12-20T13:59:49.639Z,12.90
2022-12-20T14:02:29.905Z,12.90
2022-12-20T14:05:02.167Z,12.90
2022-12-20T14:07:29.806Z,12.80
2022-12-20T14:09:59.110Z,12.70
2022-12-20T14:12:31.318Z,12.60
2022-12-20T14:15:03.107Z,12.50
2022-12-20T14:17:32.208Z,12.40
2022-12-20T14:20:16.628Z,12.20
2022-12-20T14:22:51.535Z,12.20
2022-12-20T14:25:21.251Z,12.10
2022-12-20T14:27:48.045Z,12.10
2022-12-20T14:30:35.619Z,12.00
2022-12-20T14:33:02.457Z,12.00
2022-12-20T14:35:29.513Z,11.90
2022-12-20T14:38:00.718Z,11.90
2022-12-20T14:40:27.991Z,11.90
2022-12-20T14:42:54.981Z,11.90
2022-12-20T14:45:30.889Z,11.80
2022-12-20T14:47:59.126Z,11.80
2022-12-20T14:50:31.199Z,11.70
2022-12-20T14:52:58.037Z,11.60
2022-12-20T14:55:33.095Z,11.40
2022-12-20T14:57:59.858Z,11.40
2022-12-20T15:00:33.998Z,11.30
2022-12-20T15:03:11.259Z,11.20
2022-12-20T15:05:43.252Z,11.10
2022-12-20T15:08:23.841Z,11.10
2022-12-20T15:11:10.511Z,11.00
2022-12-20T15:13:38.245Z,10.90
2022-12-20T15:16:16.285Z,10.90
2022-12-20T15:18:43.218Z,10.80
2022-12-20T15:21:19.895Z,10.70
2022-12-20T15:23:48.452Z,10.60
2022-12-20T15:26:16.394Z,10.50
2022-12-20T15:28:43.248Z,10.60
2022-12-20T15:31:11.399Z,10.50
2022-12-20T15:33:39.544Z,10.50
2022-12-20T15:36:06.791Z,10.50
2022-12-20T15:39:10.571Z,10.40
2022-12-20T15:41:29.031Z,10.30
2022-12-20T15:43:57.500Z,10.20
2022-12-20T15:46:24.464Z,10.00
2022-12-20T15:48:51.328Z,9.90
2022-12-20T15:51:30.925Z,9.80
2022-12-20T15:53:57.993Z,9.70
2022-12-20T15:56:27.141Z,9.50
2022-12-20T15:58:54.046Z,9.40
2022-12-20T16:01:24.273Z,9.30
2022-12-20T16:03:51.146Z,9.20
2022-12-20T16:06:17.995Z,9.10
2022-12-20T16:08:44.846Z,8.90
2022-12-20T16:11:21.364Z,8.80
2022-12-20T16:13:48.147Z,8.70
2022-12-20T16:16:19.383Z,8.60
2022-12-20T16:18:46.287Z,8.50
2022-12-20T16:21:24.598Z,8.50
2022-12-20T16:23:51.646Z,8.40
2022-12-20T16:26:22.739Z,8.40
2022-12-20T16:28:50.079Z,8.30
2022-12-20T16:31:31.032Z,8.20
2022-12-20T16:33:58.856Z,8.20
2022-12-20T16:36:25.781Z,8.10
2022-12-20T16:38:52.744Z,8.10
2022-12-20T16:41:21.106Z,8.00
2022-12-20T16:43:48.261Z,8.00
2022-12-20T16:46:19.764Z,8.00
2022-12-20T16:48:46.673Z,7.90
2022-12-20T16:51:39.940Z,7.80
2022-12-20T16:54:20.456Z,7.80
2022-12-20T16:56:47.948Z,7.70
2022-12-20T16:59:20.588Z,7.60
2022-12-20T17:01:49.051Z,7.60
2022-12-20T17:04:17.633Z,7.60
2022-12-20T17:06:44.526Z,7.50
2022-12-20T17:09:11.435Z,7.40
2022-12-20T17:11:38.325Z,7.40
2022-12-20T17:14:12.097Z,7.30
2022-12-20T17:16:39.888Z,7.30
2022-12-20T17:19:06.759Z,7.20
2022-12-20T17:24:23.489Z,7.10
2022-12-20T17:26:50.375Z,7.10
2022-12-20T17:29:17.906Z,7.00
2022-12-20T17:31:46.410Z,6.90
2022-12-20T17:34:18.035Z,6.90
2022-12-20T17:36:45.467Z,6.90
2022-12-20T17:39:12.329Z,6.80
2022-12-20T17:41:39.231Z,6.80
2022-12-20T17:44:06.591Z,6.70
2022-12-20T17:46:33.692Z,6.70
2022-12-20T17:49:00.608Z,6.70
2022-12-20T17:51:28.872Z,6.60
2022-12-20T17:53:59.619Z,6.60
2022-12-20T17:56:30.692Z,6.60
2022-12-20T17:58:57.728Z,6.50
2022-12-20T18:01:29.520Z,6.50
2022-12-20T18:04:06.326Z,6.50
2022-12-20T18:06:34.460Z,6.40
2022-12-20T18:09:01.385Z,6.40
2022-12-20T18:11:28.507Z,6.40
2022-12-20T18:13:57.331Z,6.40
2022-12-20T18:16:26.959Z,6.40
2022-12-20T18:18:53.965Z,6.30
2022-12-20T18:21:21.150Z,6.30
2022-12-20T18:23:48.391Z,6.30
2022-12-20T18:26:22.904Z,6.30
2022-12-20T18:28:51.578Z,6.30
2022-12-20T18:31:19.471Z,6.30
2022-12-20T18:33:50.039Z,6.40
2022-12-20T18:36:21.210Z,6.40
2022-12-20T18:38:48.604Z,6.40
2022-12-20T18:41:25.780Z,6.40
2022-12-20T18:43:53.494Z,6.40
2022-12-20T18:46:21.447Z,6.30
2022-12-20T18:48:49.964Z,6.30
2022-12-20T18:51:18.299Z,6.30
2022-12-20T18:53:46.212Z,6.30
2022-12-20T18:56:17.896Z,6.30
2022-12-20T18:58:44.847Z,6.30
2022-12-20T19:01:15.397Z,6.30
2022-12-20T19:03:42.673Z,6.30
2022-12-20T19:06:10.648Z,6.40
2022-12-20T19:08:38.072Z,6.30
2022-12-20T19:11:06.705Z,6.30
2022-12-20T19:13:33.587Z,6.30
2022-12-20T19:16:04.762Z,6.40
2022-12-20T19:18:31.564Z,6.40
2022-12-20T19:21:11.628Z,6.30
2022-12-20T19:23:38.839Z,6.30
2022-12-20T19:26:07.244Z,6.30
2022-12-20T19:28:34.212Z,6.30
2022-12-20T19:31:17.362Z,6.20
2022-12-20T19:33:48.281Z,6.10
2022-12-20T19:36:25.661Z,6.00
2022-12-20T19:38:57.196Z,6.00
2022-12-20T19:41:25.360Z,5.90
2022-12-20T19:43:52.378Z,5.90
2022-12-20T19:46:27.940Z,5.90
2022-12-20T19:48:55.934Z,5.90
2022-12-20T19:51:23.267Z,5.80
2022-12-20T19:53:51.103Z,5.80
2022-12-20T19:56:20.800Z,5.70
2022-12-20T19:58:48.013Z,5.70
2022-12-20T20:01:15.312Z,5.60
2022-12-20T20:03:43.509Z,5.60
2022-12-20T20:06:10.396Z,5.60
2022-12-20T20:08:37.161Z,5.50
2022-12-20T20:11:09.395Z,5.50
2022-12-20T20:13:37.177Z,5.50
2022-12-20T20:16:04.426Z,5.50
2022-12-20T20:18:33.596Z,5.50
2022-12-20T20:21:00.444Z,5.50
2022-12-20T20:23:27.451Z,5.40
2022-12-20T20:25:58.899Z,5.50
2022-12-20T20:28:31.647Z,5.40
2022-12-20T20:31:00.044Z,5.30
2022-12-20T20:33:27.053Z,5.30
2022-12-20T20:35:55.228Z,5.30
2022-12-20T20:38:22.175Z,5.20
2022-12-20T20:40:49.238Z,5.20
2022-12-20T20:43:16.019Z,5.20
2022-12-20T20:45:42.842Z,5.20
2022-12-20T20:48:09.657Z,5.20
2022-12-20T20:50:36.692Z,5.20
2022-12-20T20:53:04.420Z,5.10
2022-12-20T20:55:31.244Z,5.10
2022-12-20T20:57:58.049Z,5.00
2022-12-20T21:00:25.330Z,5.00
2022-12-20T21:02:52.358Z,5.00
2022-12-20T21:08:06.062Z,4.90
2022-12-20T21:10:33.902Z,4.90
2022-12-20T21:13:00.741Z,5.00
2022-12-20T21:15:28.094Z,4.90
2022-12-20T21:17:55.312Z,4.90
2022-12-20T21:20:25.946Z,4.90
2022-12-20T21:22:53.356Z,4.90
2022-12-20T21:25:20.285Z,4.90
2022-12-20T21:27:47.026Z,4.90
2022-12-20T21:30:13.982Z,4.80
2022-12-20T21:32:40.724Z,4.80
2022-12-20T21:35:07.797Z,4.80
2022-12-20T21:37:34.704Z,4.70
2022-12-20T21:40:01.513Z,4.70
2022-12-20T21:42:28.889Z,4.70
2022-12-20T21:44:56.281Z,4.70
2022-12-20T21:47:23.145Z,4.70
2022-12-20T21:49:50.157Z,4.70
2022-12-20T21:52:17.004Z,4.70
2022-12-20T21:54:43.941Z,4.70
2022-12-20T21:57:11.411Z,4.70
2022-12-20T21:59:38.430Z,4.60
2022-12-20T22:02:05.836Z,4.60
2022-12-20T22:04:33.330Z,4.50
2022-12-20T22:07:00.152Z,4.50
2022-12-20T22:09:26.951Z,4.50
2022-12-20T22:11:54.816Z,4.50
2022-12-20T22:14:21.661Z,4.50
2022-12-20T22:16:48.724Z,4.40
2022-12-20T22:19:15.677Z,4.50
2022-12-20T22:21:42.527Z,4.50
2022-12-20T22:24:09.496Z,4.40
2022-12-20T22:26:36.941Z,4.40
2022-12-20T22:29:05.283Z,4.40
2022-12-20T22:31:32.233Z,4.40
2022-12-20T22:33:59.173Z,4.40
2022-12-20T22:36:26.376Z,4.40
2022-12-20T22:38:53.869Z,4.50
2022-12-20T22:41:28.956Z,4.50
2022-12-20T22:43:59.748Z,4.50
2022-12-20T22:46:29.230Z,4.60
2022-12-20T22:48:56.567Z,4.60
2022-12-20T22:51:24.739Z,4.70
2022-12-20T22:53:52.017Z,4.80
2022-12-20T22:56:19.656Z,4.80
2022-12-20T22:58:46.640Z,4.80
2022-12-20T23:01:14.358Z,4.80
2022-12-20T23:03:41.272Z,4.70
2022-12-20T23:06:08.625Z,4.70
2022-12-20T23:08:36.597Z,4.70
2022-12-20T23:11:22.922Z,4.60
2022-12-20T23:14:07.861Z,4.60
2022-12-20T23:16:34.705Z,4.50
2022-12-20T23:19:01.795Z,4.50
2022-12-20T23:21:47.636Z,4.50
2022-12-20T23:24:14.902Z,4.50
2022-12-20T23:26:41.867Z,4.50
2022-12-20T23:29:08.673Z,4.40
2022-12-20T23:31:35.592Z,4.50
2022-12-20T23:34:02.427Z,4.50
2022-12-20T23:36:29.397Z,4.50
2022-12-20T23:38:56.762Z,4.40
2022-12-20T23:41:23.693Z,4.50
2022-12-20T23:43:50.527Z,4.50
2022-12-20T23:46:18.395Z,4.50
2022-12-20T23:48:45.218Z,4.50
2022-12-20T23:51:12.010Z,4.50
2022-12-20T23:53:39.066Z,4.50
2022-12-20T23:56:11.038Z,4.50
2022-12-20T23:58:38.160Z,4.60
